Time;durP1;ratioP1;P1;durP2;ratioP2;P2;SDS_P1;SDS_P2;PMS_P1;PMS_P2;Temp;Humidity;BMP_temperature;BMP_pressure;BME280_temperature;BME280_humidity;BME280_pressure;Samples;Min_cycle;Max_cycle;Signal;HPM_P1;HPM_P2
2023/12/01 00:01:33;;;;;;;7.03;4.03;;;-3274.30;97.00;;;;;;5010421;28;20391;-74
2023/12/01 00:03:58;;;;;;;9.65;4.13;;;-3274.30;97.00;;;;;;5005878;28;20036;-73
2023/12/01 00:06:24;;;;;;;8.75;4.15;;;-3274.20;97.00;;;;;;5011233;28;20143;-72
2023/12/01 00:08:49;;;;;;;7.50;3.28;;;-3274.30;97.20;;;;;;5012258;28;20037;-73
2023/12/01 00:11:15;;;;;;;7.50;3.58;;;-3274.30;97.10;;;;;;5012184;28;20034;-73
2023/12/01 00:13:40;;;;;;;8.73;3.55;;;-3274.30;97.00;;;;;;5012913;28;20088;-73
2023/12/01 00:16:06;;;;;;;8.05;4.22;;;-3274.30;97.10;;;;;;5010921;28;20042;-73
2023/12/01 00:18:32;;;;;;;8.75;3.72;;;-3274.30;97.00;;;;;;5006528;28;20096;-72
2023/12/01 00:20:57;;;;;;;10.95;3.83;;;-3274.40;97.10;;;;;;5011100;28;20046;-73
2023/12/01 00:23:23;;;;;;;8.75;3.90;;;-3274.30;97.00;;;;;;5007942;28;20034;-74
2023/12/01 00:25:48;;;;;;;9.05;3.67;;;-3274.30;97.00;;;;;;5011972;28;20696;-73
2023/12/01 00:28:14;;;;;;;9.63;3.60;;;-3274.30;97.00;;;;;;5010230;28;20030;-73
2023/12/01 00:30:39;;;;;;;8.02;4.03;;;-3274.30;97.00;;;;;;5016546;28;20386;-74
2023/12/01 00:33:05;;;;;;;7.53;3.95;;;-3274.30;96.90;;;;;;5009989;28;20030;-73
2023/12/01 00:35:30;;;;;;;8.50;3.55;;;-3274.30;97.00;;;;;;5010512;28;20442;-73
2023/12/01 00:37:56;;;;;;;7.13;3.92;;;-3274.20;97.00;;;;;;5010740;28;20037;-74
2023/12/01 00:40:22;;;;;;;8.13;3.95;;;-3274.30;97.10;;;;;;5010151;28;20470;-73
2023/12/01 00:42:47;;;;;;;7.43;3.63;;;-3274.30;96.90;;;;;;5010870;28;20025;-75
2023/12/01 00:45:14;;;;;;;8.27;3.63;;;-3274.30;97.00;;;;;;5015167;28;20026;-73
2023/12/01 00:47:40;;;;;;;7.72;2.97;;;-3274.30;97.00;;;;;;5007573;28;20022;-74
2023/12/01 00:50:06;;;;;;;7.05;3.13;;;-3274.30;97.00;;;;;;5012824;28;20154;-75
2023/12/01 00:52:31;;;;;;;7.57;3.35;;;-3274.30;97.10;;;;;;5011435;28;20026;-73
2023/12/01 00:54:57;;;;;;;8.57;3.70;;;-3274.30;97.00;;;;;;5010756;28;20052;-75
2023/12/01 00:57:22;;;;;;;7.60;3.95;;;-3274.30;97.00;;;;;;5009626;28;20430;-73
2023/12/01 00:59:48;;;;;;;7.82;3.78;;;-3274.30;97.10;;;;;;5011732;28;20116;-74
2023/12/01 01:02:13;;;;;;;7.32;3.45;;;-3274.30;97.10;;;;;;5006229;28;20050;-73
2023/12/01 01:04:39;;;;;;;9.73;3.92;;;-3274.30;97.10;;;;;;5009161;28;20085;-72
2023/12/01 01:07:05;;;;;;;7.07;3.60;;;-3274.30;97.00;;;;;;5010362;28;20066;-72
2023/12/01 01:09:30;;;;;;;6.50;3.22;;;-3274.30;97.20;;;;;;5010113;28;20040;-77
2023/12/01 01:11:56;;;;;;;9.23;3.95;;;-3274.40;97.30;;;;;;5022446;28;20554;-73
2023/12/01 01:14:21;;;;;;;9.23;3.92;;;-3274.40;97.20;;;;;;5007612;28;20037;-73
2023/12/01 01:16:47;;;;;;;8.25;3.75;;;-3274.40;97.20;;;;;;5008927;28;20065;-75
2023/12/01 01:19:12;;;;;;;8.13;3.65;;;-3274.30;97.10;;;;;;5008752;28;20068;-73
2023/12/01 01:21:37;;;;;;;6.93;3.20;;;-3274.30;97.00;;;;;;5010472;28;20430;-73
2023/12/01 01:24:03;;;;;;;7.38;3.35;;;-3274.30;97.00;;;;;;5010587;28;20091;-73
2023/12/01 01:26:29;;;;;;;7.53;3.17;;;-3274.30;97.00;;;;;;5009771;28;20057;-72
2023/12/01 01:28:55;;;;;;;6.18;2.95;;;-3274.30;96.80;;;;;;5008956;28;20068;-73
2023/12/01 01:31:20;;;;;;;6.43;2.92;;;-3274.30;96.80;;;;;;5025074;28;20034;-72
2023/12/01 01:33:46;;;;;;;6.72;3.22;;;-3274.30;96.90;;;;;;5012933;28;20982;-72
2023/12/01 01:36:11;;;;;;;6.13;2.47;;;-3274.30;96.90;;;;;;5011469;28;20468;-72
2023/12/01 01:38:37;;;;;;;7.80;2.60;;;-3274.20;96.70;;;;;;5007073;28;20034;-74
2023/12/01 01:41:03;;;;;;;6.22;2.50;;;-3274.30;96.80;;;;;;5013403;28;20025;-73
2023/12/01 01:43:29;;;;;;;5.47;2.88;;;-3274.30;96.70;;;;;;5008532;28;20034;-73
2023/12/01 01:46:06;;;;;;;6.22;2.47;;;-3274.20;96.60;;;;;;5008677;28;20612;-73
2023/12/01 01:48:33;;;;;;;4.80;1.95;;;-3274.20;96.60;;;;;;5005951;28;20356;-73
2023/12/01 01:51:00;;;;;;;4.85;2.53;;;-3274.20;96.60;;;;;;5010186;28;20093;-74
2023/12/01 01:53:26;;;;;;;4.32;1.90;;;-3274.20;96.50;;;;;;5007508;28;20426;-73
2023/12/01 01:55:52;;;;;;;3.28;1.95;;;-3274.10;96.40;;;;;;5008845;28;20030;-73
2023/12/01 01:58:17;;;;;;;6.15;2.47;;;-3274.20;96.50;;;;;;5011056;28;20038;-74
2023/12/01 02:00:49;;;;;;;6.70;2.60;;;-3274.20;96.50;;;;;;5011664;28;20061;-73
2023/12/01 02:03:15;;;;;;;7.07;2.88;;;-3274.20;96.70;;;;;;5005563;28;20084;-73
2023/12/01 02:05:41;;;;;;;6.18;2.50;;;-3274.20;96.60;;;;;;5009509;28;20072;-73
2023/12/01 02:08:23;;;;;;;6.07;2.47;;;-3274.20;96.60;;;;;;5009928;28;20124;-73
2023/12/01 02:10:49;;;;;;;5.47;2.65;;;-3274.20;96.70;;;;;;5010087;28;20497;-72
2023/12/01 02:13:15;;;;;;;6.10;2.80;;;-3274.20;96.50;;;;;;5012964;28;20045;-72
2023/12/01 02:15:42;;;;;;;5.82;2.17;;;-3274.20;96.60;;;;;;5012430;28;20458;-73
2023/12/01 02:18:33;;;;;;;6.93;2.10;;;-3274.20;96.60;;;;;;5008371;28;20040;-73
2023/12/01 02:20:59;;;;;;;6.65;3.08;;;-3274.10;96.50;;;;;;5011217;28;20041;-73
2023/12/01 02:23:26;;;;;;;6.95;2.67;;;-3274.00;96.30;;;;;;5017944;28;20475;-75
2023/12/01 02:25:52;;;;;;;7.88;3.47;;;-3274.00;96.10;;;;;;5016008;28;20033;-76
2023/12/01 02:28:17;;;;;;;5.95;3.00;;;-3274.00;96.20;;;;;;5013446;28;20529;-73
2023/12/01 02:30:50;;;;;;;7.57;3.10;;;-3274.00;96.20;;;;;;5011786;28;20025;-75
2023/12/01 02:33:16;;;;;;;7.65;2.90;;;-3274.00;96.10;;;;;;5011398;28;20037;-73
2023/12/01 02:35:49;;;;;;;8.75;3.78;;;-3273.90;96.10;;;;;;5014509;28;20057;-73
2023/12/01 02:38:16;;;;;;;11.40;4.25;;;-3273.90;96.20;;;;;;5014538;28;20030;-72
2023/12/01 02:40:49;;;;;;;9.52;4.13;;;-3273.80;96.00;;;;;;5013686;28;20049;-73
2023/12/01 02:43:15;;;;;;;9.48;4.15;;;-3273.80;96.00;;;;;;5011604;28;20065;-72
2023/12/01 02:45:41;;;;;;;10.98;4.45;;;-3273.70;96.00;;;;;;5014283;28;20482;-75
2023/12/01 02:48:07;;;;;;;9.35;4.80;;;-3273.70;96.10;;;;;;5009198;28;20042;-74
2023/12/01 02:50:33;;;;;;;10.75;4.95;;;-3273.70;96.10;;;;;;5011276;28;20180;-73
2023/12/01 02:53:00;;;;;;;11.48;5.05;;;-3273.70;96.20;;;;;;5015002;28;20034;-73
2023/12/01 02:55:26;;;;;;;10.75;4.82;;;-3273.60;96.20;;;;;;5008218;28;20112;-73
2023/12/01 02:57:51;;;;;;;11.80;5.32;;;-3273.60;96.20;;;;;;5012746;28;20041;-73
2023/12/01 03:00:17;;;;;;;8.32;3.83;;;-3273.50;96.10;;;;;;5010789;28;20029;-74
2023/12/01 03:02:44;;;;;;;9.20;4.03;;;-3273.50;96.30;;;;;;5009070;28;20034;-72
2023/12/01 03:05:10;;;;;;;10.55;4.85;;;-3273.50;96.10;;;;;;5010400;28;20034;-75
2023/12/01 03:07:37;;;;;;;10.73;5.00;;;-3273.40;96.10;;;;;;5025998;28;20038;-72
2023/12/01 03:10:03;;;;;;;9.25;4.38;;;-3273.20;96.10;;;;;;5027040;28;20442;-73
2023/12/01 03:12:29;;;;;;;9.60;4.50;;;-3273.20;96.20;;;;;;5014993;28;20037;-74
2023/12/01 03:14:54;;;;;;;10.00;4.47;;;-3273.00;96.10;;;;;;5014623;28;20528;-73
2023/12/01 03:17:23;;;;;;;9.45;4.20;;;-3273.00;96.20;;;;;;5008158;28;20057;-75
2023/12/01 03:19:49;;;;;;;10.52;5.13;;;-3273.00;96.30;;;;;;5011165;28;20034;-73
2023/12/01 03:22:15;;;;;;;11.45;4.80;;;-3272.90;96.30;;;;;;5010783;28;20450;-73
2023/12/01 03:24:42;;;;;;;8.40;4.00;;;-3272.90;96.50;;;;;;5011062;28;20053;-73
2023/12/01 03:27:08;;;;;;;8.98;4.65;;;-3272.80;96.40;;;;;;5013823;28;20113;-75
2023/12/01 03:29:35;;;;;;;9.15;5.35;;;-3273.00;96.60;;;;;;5010914;28;20180;-73
2023/12/01 03:32:00;;;;;;;13.27;4.95;;;-3273.00;96.70;;;;;;5012101;28;20029;-74
2023/12/01 03:34:26;;;;;;;11.73;5.72;;;-3272.90;96.70;;;;;;5011910;28;20049;-72
2023/12/01 03:36:52;;;;;;;14.18;5.10;;;-3272.90;96.70;;;;;;5011338;28;20033;-72
2023/12/01 03:39:18;;;;;;;13.80;5.68;;;-3272.90;96.60;;;;;;5012558;28;20050;-74
2023/12/01 03:41:50;;;;;;;10.38;5.30;;;-3272.80;96.60;;;;;;5012336;28;20489;-73
2023/12/01 03:44:16;;;;;;;10.23;4.38;;;-3272.70;96.70;;;;;;5010525;28;20041;-72
2023/12/01 03:46:41;;;;;;;12.23;6.22;;;-3272.60;96.70;;;;;;5008562;28;20382;-76
2023/12/01 03:49:07;;;;;;;9.98;4.30;;;-3272.60;96.70;;;;;;5010384;28;20092;-73
2023/12/01 03:51:34;;;;;;;8.52;4.10;;;-3272.50;96.60;;;;;;5011754;28;20042;-73
2023/12/01 03:53:59;;;;;;;11.18;5.10;;;-3272.30;96.60;;;;;;5011751;28;20442;-73
2023/12/01 03:56:25;;;;;;;12.15;5.20;;;-3272.30;96.70;;;;;;5011127;28;20045;-72
2023/12/01 03:58:54;;;;;;;12.52;4.88;;;-3272.20;96.70;;;;;;5009836;28;20136;-73
2023/12/01 04:01:23;;;;;;;12.80;5.72;;;-3272.10;96.70;;;;;;5009913;28;20445;-73
2023/12/01 04:03:48;;;;;;;12.93;4.97;;;-3272.00;96.70;;;;;;5007580;28;20065;-73
2023/12/01 04:06:14;;;;;;;12.43;4.93;;;-3271.90;96.80;;;;;;5009864;28;20061;-74
2023/12/01 04:08:40;;;;;;;11.38;5.07;;;-3271.90;96.90;;;;;;5009604;28;20538;-72
2023/12/01 04:11:08;;;;;;;13.07;6.20;;;-3271.80;96.80;;;;;;5009572;28;20017;-73
2023/12/01 04:13:35;;;;;;;11.20;6.00;;;-3271.80;96.80;;;;;;5009086;28;20592;-73
2023/12/01 04:16:00;;;;;;;13.00;6.03;;;-3271.70;96.80;;;;;;5010428;28;20442;-72
2023/12/01 04:18:29;;;;;;;11.32;5.25;;;-3271.70;96.80;;;;;;5003678;28;20533;-72
2023/12/01 04:20:56;;;;;;;12.75;6.20;;;-3271.60;96.90;;;;;;5009338;28;20037;-72
2023/12/01 04:23:22;;;;;;;13.07;5.32;;;-3271.50;96.80;;;;;;5011825;28;20026;-72
2023/12/01 04:25:47;;;;;;;11.48;5.13;;;-3271.50;96.90;;;;;;5011288;28;20407;-75
2023/12/01 04:28:14;;;;;;;14.82;6.35;;;-3271.60;97.00;;;;;;5014715;28;20100;-72
2023/12/01 04:30:40;;;;;;;13.40;6.78;;;-3271.50;97.10;;;;;;5010234;28;20088;-76
2023/12/01 04:33:06;;;;;;;12.98;6.28;;;-3271.50;97.10;;;;;;5005072;28;20065;-72
2023/12/01 04:35:33;;;;;;;16.13;7.57;;;-3271.50;97.10;;;;;;5008633;28;20076;-73
2023/12/01 04:38:00;;;;;;;16.45;7.22;;;-3271.50;97.00;;;;;;5011891;28;20463;-76
2023/12/01 04:40:27;;;;;;;12.05;6.20;;;-3271.40;96.90;;;;;;5011572;28;20453;-73
2023/12/01 04:42:55;;;;;;;13.35;6.38;;;-3271.40;97.00;;;;;;5009136;28;20555;-72
2023/12/01 04:45:21;;;;;;;13.32;6.53;;;-3271.30;97.00;;;;;;5007899;28;20026;-73
2023/12/01 04:47:50;;;;;;;15.02;6.20;;;-3271.30;97.00;;;;;;5004427;28;20058;-76
2023/12/01 04:50:18;;;;;;;13.25;6.80;;;-3271.30;97.10;;;;;;5012072;28;20072;-72
2023/12/01 04:52:52;;;;;;;13.27;6.22;;;-3271.30;97.10;;;;;;5008559;28;20041;-73
2023/12/01 04:55:20;;;;;;;14.68;7.28;;;-3271.30;97.10;;;;;;5010119;28;20083;-73
2023/12/01 04:57:47;;;;;;;15.48;6.53;;;-3271.30;97.20;;;;;;5009709;28;20075;-72
2023/12/01 05:00:21;;;;;;;15.27;6.43;;;-3271.30;97.20;;;;;;5009503;28;20042;-72
2023/12/01 05:02:50;;;;;;;12.73;6.40;;;-3271.30;97.10;;;;;;5009012;28;20375;-72
2023/12/01 05:05:17;;;;;;;15.10;7.43;;;-3271.30;97.20;;;;;;5013457;28;20075;-73
2023/12/01 05:07:43;;;;;;;15.07;6.75;;;-3271.30;97.30;;;;;;5009073;28;20045;-72
2023/12/01 05:10:14;;;;;;;12.25;6.72;;;-3271.30;97.30;;;;;;5006174;28;20405;-72
2023/12/01 05:12:41;;;;;;;16.00;7.90;;;-3271.30;97.30;;;;;;5012555;28;20061;-72
2023/12/01 05:15:15;;;;;;;16.88;7.68;;;-3271.20;97.20;;;;;;5010958;28;20045;-75
2023/12/01 05:17:41;;;;;;;19.33;8.57;;;-3271.20;97.20;;;;;;5006875;28;20041;-72
2023/12/01 05:20:15;;;;;;;19.95;7.43;;;-3271.30;97.30;;;;;;5008309;28;20819;-73
2023/12/01 05:22:44;;;;;;;16.83;7.07;;;-3271.30;97.40;;;;;;5008504;28;20034;-74
2023/12/01 05:25:15;;;;;;;15.52;8.10;;;-3271.50;97.60;;;;;;5013790;28;20033;-73
2023/12/01 05:27:54;;;;;;;19.88;8.40;;;-3271.60;97.60;;;;;;5010511;28;20036;-69
2023/12/01 05:30:23;;;;;;;20.75;8.70;;;-3271.60;97.50;;;;;;5010062;28;20046;-70
2023/12/01 05:32:50;;;;;;;15.55;8.65;;;-3271.80;97.50;;;;;;5004965;28;20373;-70
2023/12/01 05:35:16;;;;;;;16.98;8.73;;;-3271.90;97.70;;;;;;5008708;28;20026;-70
2023/12/01 05:37:47;;;;;;;16.55;7.47;;;-3272.00;97.70;;;;;;5000836;28;20562;-70
2023/12/01 05:40:14;;;;;;;14.98;7.18;;;-3272.10;97.60;;;;;;5008806;28;20111;-70
2023/12/01 05:42:44;;;;;;;17.02;7.15;;;-3272.30;97.70;;;;;;5009693;28;20026;-70
2023/12/01 05:45:11;;;;;;;16.88;8.50;;;-3272.40;97.80;;;;;;5010338;28;20042;-70
2023/12/01 05:47:48;;;;;;;14.85;6.82;;;-3272.50;97.70;;;;;;5013083;28;20057;-72
2023/12/01 05:50:23;;;;;;;15.63;6.30;;;-3272.60;97.90;;;;;;5012004;28;20089;-71
2023/12/01 05:52:51;;;;;;;14.38;5.47;;;-3272.50;97.60;;;;;;5012988;28;20045;-70
2023/12/01 05:55:19;;;;;;;13.45;6.82;;;-3272.60;97.70;;;;;;5008123;28;20073;-71
2023/12/01 05:57:49;;;;;;;12.65;6.68;;;-3272.50;97.60;;;;;;5013623;28;20490;-70
2023/12/01 06:00:20;;;;;;;15.93;7.47;;;-3272.50;97.60;;;;;;5010569;28;20029;-70
2023/12/01 06:02:50;;;;;;;13.35;5.78;;;-3272.50;97.70;;;;;;5009231;28;20382;-71
2023/12/01 06:05:17;;;;;;;12.90;6.00;;;-3272.40;97.50;;;;;;5010820;28;20034;-71
2023/12/01 06:07:45;;;;;;;17.98;7.82;;;-3272.50;97.70;;;;;;5014513;28;20037;-70
2023/12/01 06:10:13;;;;;;;13.20;6.22;;;-3272.60;97.80;;;;;;5010763;28;20112;-70
2023/12/01 06:12:39;;;;;;;18.98;7.18;;;-3272.60;97.70;;;;;;5012790;28;20471;-70
2023/12/01 06:15:19;;;;;;;18.00;6.65;;;-3272.80;97.80;;;;;;5011585;28;20065;-70
2023/12/01 06:17:47;;;;;;;13.85;6.50;;;-3272.70;97.50;;;;;;5006924;28;20057;-71
2023/12/01 06:20:18;;;;;;;21.05;7.50;;;-3272.80;97.70;;;;;;5012248;28;20375;-71
2023/12/01 06:22:51;;;;;;;17.40;7.70;;;-3272.90;97.80;;;;;;5013955;28;20030;-70
2023/12/01 06:25:19;;;;;;;16.13;7.65;;;-3272.90;97.60;;;;;;5010421;28;20042;-71
2023/12/01 06:27:45;;;;;;;21.05;7.65;;;-3272.90;97.60;;;;;;5008230;28;20092;-71
2023/12/01 06:30:13;;;;;;;16.08;7.53;;;-3273.00;97.70;;;;;;5012740;28;20065;-71
2023/12/01 06:32:40;;;;;;;15.82;6.50;;;-3273.00;97.60;;;;;;5011205;28;20113;-71
2023/12/01 06:35:08;;;;;;;15.52;5.88;;;-3273.00;97.50;;;;;;5012619;28;20416;-71
2023/12/01 06:37:34;;;;;;;18.15;6.80;;;-3273.00;97.60;;;;;;5009549;28;20030;-71
2023/12/01 06:39:59;;;;;;;19.58;9.32;;;-3273.00;97.60;;;;;;5016502;28;20040;-71
2023/12/01 06:42:25;;;;;;;15.32;7.40;;;-3273.10;97.70;;;;;;5010295;28;20101;-71
2023/12/01 06:44:50;;;;;;;15.18;7.50;;;-3273.10;97.50;;;;;;5010558;28;20062;-71
2023/12/01 06:47:16;;;;;;;13.15;6.20;;;-3273.00;97.40;;;;;;5002609;28;20040;-71
2023/12/01 06:49:41;;;;;;;19.33;7.18;;;-3273.10;97.50;;;;;;5005551;28;20054;-71
2023/12/01 06:52:08;;;;;;;13.70;5.95;;;-3273.20;97.70;;;;;;5013472;28;20033;-71
2023/12/01 06:54:33;;;;;;;14.93;7.10;;;-3273.20;97.60;;;;;;5012965;28;20026;-71
2023/12/01 06:56:59;;;;;;;16.17;7.25;;;-3273.20;97.60;;;;;;5014431;28;20040;-72
2023/12/01 06:59:24;;;;;;;15.30;6.35;;;-3273.30;97.50;;;;;;5013519;28;20398;-71
2023/12/01 07:01:50;;;;;;;18.70;6.72;;;-3273.20;97.50;;;;;;4996049;28;20034;-71
2023/12/01 07:04:15;;;;;;;16.10;7.65;;;-3273.30;97.50;;;;;;5005606;28;20513;-71
2023/12/01 07:06:46;;;;;;;17.58;7.47;;;-3273.30;97.50;;;;;;5010992;28;20454;-71
2023/12/01 07:09:17;;;;;;;15.15;8.02;;;-3273.30;97.40;;;;;;5012397;28;20026;-71
2023/12/01 07:11:43;;;;;;;16.17;7.45;;;-3273.30;97.50;;;;;;5011837;28;20029;-72
2023/12/01 07:14:08;;;;;;;11.88;6.25;;;-3273.40;97.60;;;;;;5011786;28;20029;-71
2023/12/01 07:16:34;;;;;;;17.20;7.43;;;-3273.50;97.70;;;;;;5012272;28;20088;-72
2023/12/01 07:18:59;;;;;;;15.20;6.95;;;-3273.50;97.50;;;;;;5011333;28;20038;-72
2023/12/01 07:21:25;;;;;;;14.90;7.32;;;-3273.50;97.50;;;;;;5017798;28;20390;-71
2023/12/01 07:23:50;;;;;;;14.25;5.75;;;-3273.40;97.40;;;;;;5013856;28;20038;-71
2023/12/01 07:26:16;;;;;;;18.30;7.95;;;-3273.50;97.60;;;;;;5012235;28;20113;-72
2023/12/01 07:28:41;;;;;;;12.50;6.65;;;-3273.50;97.60;;;;;;5007632;28;20599;-71
2023/12/01 07:31:07;;;;;;;19.80;8.27;;;-3273.60;97.60;;;;;;5015491;28;20104;-72
2023/12/01 07:33:32;;;;;;;15.73;7.32;;;-3273.60;97.40;;;;;;5008386;28;20076;-71
2023/12/01 07:35:58;;;;;;;17.83;7.30;;;-3273.60;97.50;;;;;;5011493;28;20459;-72
2023/12/01 07:38:23;;;;;;;18.00;7.47;;;-3273.60;97.50;;;;;;5017450;28;20120;-71
2023/12/01 07:40:49;;;;;;;15.68;6.57;;;-3273.60;97.50;;;;;;5011617;28;20025;-71
2023/12/01 07:43:14;;;;;;;12.70;5.88;;;-3273.60;97.40;;;;;;5007615;28;20034;-71
2023/12/01 07:45:40;;;;;;;15.07;7.13;;;-3273.60;97.40;;;;;;5011404;28;20410;-71
2023/12/01 07:48:05;;;;;;;14.82;6.78;;;-3273.60;97.40;;;;;;5013742;28;20045;-72
2023/12/01 07:50:31;;;;;;;12.18;6.30;;;-3273.70;97.40;;;;;;5012982;28;20050;-71
2023/12/01 07:52:56;;;;;;;14.20;6.75;;;-3273.70;97.30;;;;;;5011352;28;20045;-72
2023/12/01 07:55:22;;;;;;;19.20;7.63;;;-3273.70;97.30;;;;;;5012552;28;20026;-72
2023/12/01 07:57:47;;;;;;;16.98;7.38;;;-3273.70;97.10;;;;;;5008687;28;20053;-71
2023/12/01 08:00:16;;;;;;;15.43;7.07;;;-3273.80;97.40;;;;;;5011892;28;20096;-71
2023/12/01 08:02:46;;;;;;;15.70;6.70;;;-3273.80;97.10;;;;;;5011493;28;20028;-72
2023/12/01 08:05:15;;;;;;;12.82;6.40;;;-3273.80;97.30;;;;;;5010296;28;20116;-71
2023/12/01 08:07:41;;;;;;;15.48;7.15;;;-3273.90;97.10;;;;;;5011042;28;20414;-71
2023/12/01 08:10:08;;;;;;;14.32;7.25;;;-3273.90;97.00;;;;;;5010260;28;20026;-72
2023/12/01 08:12:33;;;;;;;15.55;6.55;;;-3273.90;97.00;;;;;;5012270;28;20038;-72
2023/12/01 08:14:59;;;;;;;18.80;7.13;;;-3273.90;97.00;;;;;;5003364;28;20540;-71
2023/12/01 08:17:24;;;;;;;14.30;6.45;;;-3273.90;97.00;;;;;;5008344;28;20367;-72
2023/12/01 08:19:50;;;;;;;15.93;6.93;;;-3273.80;96.80;;;;;;5010677;28;20092;-72
2023/12/01 08:22:17;;;;;;;15.68;7.68;;;-3273.90;96.90;;;;;;5016149;28;20101;-72
2023/12/01 08:24:42;;;;;;;17.00;7.50;;;-3273.80;96.70;;;;;;5011111;28;20033;-72
2023/12/01 08:27:08;;;;;;;17.50;6.63;;;-3273.80;96.60;;;;;;5011370;28;20026;-72
2023/12/01 08:29:33;;;;;;;16.58;7.72;;;-3273.80;96.80;;;;;;5015140;28;20539;-71
2023/12/01 08:32:00;;;;;;;13.38;6.72;;;-3273.80;96.70;;;;;;5007981;28;20108;-71
2023/12/01 08:34:25;;;;;;;17.98;6.90;;;-3273.90;96.70;;;;;;5010456;28;20109;-72
2023/12/01 08:36:51;;;;;;;13.75;6.50;;;-3274.00;96.90;;;;;;5005753;28;20136;-71
2023/12/01 08:39:16;;;;;;;15.80;6.90;;;-3274.00;96.70;;;;;;5016761;28;20038;-72
2023/12/01 08:41:42;;;;;;;15.90;6.85;;;-3274.00;96.60;;;;;;5009279;28;20071;-72
2023/12/01 08:44:07;;;;;;;18.38;7.38;;;-3274.00;96.60;;;;;;5004181;28;20072;-72
2023/12/01 08:46:32;;;;;;;15.13;7.45;;;-3274.10;96.60;;;;;;5006266;28;20053;-72
2023/12/01 08:48:58;;;;;;;17.75;7.63;;;-3274.20;96.50;;;;;;5007469;28;20038;-72
2023/12/01 08:51:23;;;;;;;16.98;6.75;;;-3274.20;96.50;;;;;;5011440;28;20133;-72
2023/12/01 08:53:49;;;;;;;17.33;7.07;;;-3274.20;96.60;;;;;;5010514;28;20439;-72
2023/12/01 08:56:14;;;;;;;18.17;7.20;;;-3274.20;96.50;;;;;;5014049;28;20112;-72
2023/12/01 08:58:40;;;;;;;13.85;7.03;;;-3274.20;96.50;;;;;;5010091;28;20045;-72
2023/12/01 09:01:05;;;;;;;20.92;7.15;;;-3274.40;96.60;;;;;;5006593;28;20107;-72
2023/12/01 09:03:31;;;;;;;16.67;8.13;;;-3274.40;96.60;;;;;;5005272;28;20057;-72
2023/12/01 09:05:56;;;;;;;20.05;8.90;;;-3274.50;96.50;;;;;;5010387;28;20110;-72
2023/12/01 09:08:22;;;;;;;18.83;7.60;;;-3274.40;96.40;;;;;;5010505;28;20501;-72
2023/12/01 09:10:47;;;;;;;18.85;7.85;;;-3274.50;96.30;;;;;;5009707;28;20387;-72
2023/12/01 09:13:13;;;;;;;17.73;7.85;;;-3274.40;96.10;;;;;;5010696;28;20037;-72
2023/12/01 09:15:38;;;;;;;18.52;7.75;;;-3274.40;96.00;;;;;;5010239;28;20069;-72
2023/12/01 09:18:04;;;;;;;19.05;8.18;;;-3274.50;96.00;;;;;;5007803;28;20112;-71
2023/12/01 09:20:29;;;;;;;16.88;6.97;;;-3274.50;96.10;;;;;;5025239;28;20030;-72
2023/12/01 09:22:55;;;;;;;17.77;8.02;;;-3274.60;96.00;;;;;;5015014;28;20467;-72
2023/12/01 09:25:20;;;;;;;16.23;7.93;;;-3274.60;95.90;;;;;;5012902;28;20030;-72
2023/12/01 09:27:47;;;;;;;14.50;7.70;;;-3274.60;96.10;;;;;;5012486;28;20490;-72
2023/12/01 09:30:16;;;;;;;17.10;7.63;;;-3274.60;96.00;;;;;;5016587;28;20038;-72
2023/12/01 09:32:43;;;;;;;14.70;6.43;;;-3274.60;96.00;;;;;;5010967;28;20374;-72
2023/12/01 09:35:08;;;;;;;19.60;8.40;;;-3274.60;96.10;;;;;;5008901;28;20049;-72
2023/12/01 09:37:34;;;;;;;13.40;6.88;;;-3274.50;95.90;;;;;;5015939;28;20479;-72
2023/12/01 09:40:00;;;;;;;15.57;7.75;;;-3274.30;95.70;;;;;;5012726;28;20026;-72
2023/12/01 09:42:26;;;;;;;17.08;7.20;;;-3274.40;96.00;;;;;;5012701;28;20030;-72
2023/12/01 09:44:54;;;;;;;17.73;7.38;;;-3274.30;96.00;;;;;;5012438;28;20033;-72
2023/12/01 09:47:21;;;;;;;16.60;7.93;;;-3274.40;96.10;;;;;;5013220;28;20346;-72
2023/12/01 09:49:49;;;;;;;16.48;8.07;;;-3274.30;96.20;;;;;;5008973;28;20050;-72
2023/12/01 09:52:14;;;;;;;15.88;7.68;;;-3274.40;96.20;;;;;;5014206;28;20022;-72
2023/12/01 09:54:40;;;;;;;17.77;7.90;;;-3274.50;96.40;;;;;;5013219;28;20041;-71
2023/12/01 09:57:06;;;;;;;14.82;7.00;;;-3274.60;96.30;;;;;;5012558;28;20048;-72
2023/12/01 09:59:34;;;;;;;15.15;7.45;;;-3274.60;96.40;;;;;;5016253;28;20088;-72
2023/12/01 10:02:02;;;;;;;14.20;6.57;;;-3274.70;96.30;;;;;;5012221;28;20037;-72
2023/12/01 10:04:28;;;;;;;14.30;6.85;;;-3274.60;95.70;;;;;;5010886;28;20057;-72
2023/12/01 10:06:54;;;;;;;14.18;6.47;;;-3274.60;96.00;;;;;;5012610;28;20060;-72
2023/12/01 10:09:28;;;;;;;15.48;7.43;;;-3274.70;96.20;;;;;;5016354;28;20033;-72
2023/12/01 10:12:08;;;;;;;17.67;7.72;;;-3274.80;96.00;;;;;;5013343;28;20030;-72
2023/12/01 10:14:35;;;;;;;16.13;6.78;;;-3275.00;96.40;;;;;;5004633;28;20065;-72
2023/12/01 10:17:03;;;;;;;15.27;6.90;;;-3275.00;95.80;;;;;;5008644;28;20034;-72
2023/12/01 10:19:31;;;;;;;16.50;6.95;;;-3275.00;95.90;;;;;;5015347;28;20022;-72
2023/12/01 10:21:56;;;;;;;16.83;8.15;;;-3275.10;95.80;;;;;;5014180;28;20045;-72
2023/12/01 10:24:22;;;;;;;13.77;6.20;;;-3275.30;96.00;;;;;;5013928;28;20033;-72
2023/12/01 10:26:54;;;;;;;13.60;6.28;;;-3275.30;95.80;;;;;;5012213;28;20372;-72
2023/12/01 10:29:30;;;;;;;13.55;5.85;;;-3275.40;96.00;;;;;;5015586;28;20034;-72
2023/12/01 10:32:07;;;;;;;13.48;6.03;;;-3275.30;95.90;;;;;;5009593;28;20028;-72
2023/12/01 10:34:33;;;;;;;12.02;5.53;;;-3275.20;95.60;;;;;;5011589;28;20032;-72
2023/12/01 10:37:01;;;;;;;13.95;6.25;;;-3275.20;95.80;;;;;;5015660;28;20461;-72
2023/12/01 10:39:27;;;;;;;15.15;6.82;;;-3275.00;95.50;;;;;;5013512;28;20041;-72
2023/12/01 10:41:57;;;;;;;11.43;5.25;;;-3275.00;95.80;;;;;;5011983;28;20069;-72
2023/12/01 10:44:25;;;;;;;16.17;6.93;;;-3275.10;95.90;;;;;;5009586;28;20044;-72
2023/12/01 10:46:52;;;;;;;11.48;5.13;;;-3275.10;95.90;;;;;;5017392;28;20042;-72
2023/12/01 10:49:18;;;;;;;13.43;5.28;;;-3275.10;95.90;;;;;;5011304;28;20482;-72
2023/12/01 10:51:45;;;;;;;11.20;5.18;;;-3275.20;96.20;;;;;;5010187;28;20113;-72
2023/12/01 10:54:12;;;;;;;14.60;5.72;;;-3275.10;96.00;;;;;;5012740;28;20030;-72
2023/12/01 10:56:43;;;;;;;12.70;5.75;;;-3275.20;96.10;;;;;;5012424;28;20113;-72
2023/12/01 10:59:13;;;;;;;12.50;5.25;;;-3275.10;95.80;;;;;;5007184;28;20033;-72
2023/12/01 11:01:39;;;;;;;15.05;5.63;;;-3275.20;96.20;;;;;;5004411;28;20476;-72
2023/12/01 11:04:08;;;;;;;12.48;5.43;;;-3275.20;96.20;;;;;;5011127;28;20029;-72
2023/12/01 11:06:55;;;;;;;14.27;6.30;;;-3275.20;96.20;;;;;;5011973;28;20038;-72
2023/12/01 11:09:33;;;;;;;10.75;5.68;;;-3275.20;96.10;;;;;;5010457;28;20536;-72
2023/12/01 11:12:48;;;;;;;11.75;5.65;;;-3275.20;96.00;;;;;;5013148;28;20121;-72
2023/12/01 11:15:23;;;;;;;9.13;4.43;;;-3275.20;96.10;;;;;;4985952;28;20438;-72
2023/12/01 11:17:49;;;;;;;10.73;5.50;;;-3275.30;96.40;;;;;;5006017;28;20029;-72
2023/12/01 11:20:31;;;;;;;10.88;5.07;;;-3275.30;96.20;;;;;;5013036;28;20109;-72
2023/12/01 11:23:24;;;;;;;9.63;4.22;;;-3275.30;96.20;;;;;;5013253;28;20121;-72
2023/12/01 11:26:05;;;;;;;10.40;4.93;;;-3275.10;95.90;;;;;;5013379;28;20044;-72
2023/12/01 11:31:08;;;;;;;11.27;5.10;;;-3275.20;96.30;;;;;;5004547;28;20479;-72
2023/12/01 11:33:42;;;;;;;12.30;5.20;;;-3275.20;96.30;;;;;;5011010;28;20040;-72
2023/12/01 11:36:29;;;;;;;10.75;4.85;;;-3275.30;96.20;;;;;;5013173;28;20521;-72
2023/12/01 11:41:41;;;;;;;16.83;7.03;;;-3275.30;96.20;;;;;;5013008;28;20057;-72
2023/12/01 11:44:26;;;;;;;12.50;5.25;;;-3275.30;96.30;;;;;;5011484;28;20435;-72
2023/12/01 11:46:55;;;;;;;10.90;4.68;;;-3275.30;96.00;;;;;;5009234;28;20386;-72
2023/12/01 11:49:22;;;;;;;8.23;3.85;;;-3275.20;96.10;;;;;;5010504;28;20072;-72
2023/12/01 11:51:49;;;;;;;11.32;4.53;;;-3275.30;96.10;;;;;;5009321;28;20022;-72
2023/12/01 11:54:15;;;;;;;11.63;5.53;;;-3275.20;96.10;;;;;;5011931;28;20065;-72
2023/12/01 11:56:46;;;;;;;9.88;5.13;;;-3275.20;96.20;;;;;;5015539;28;20167;-72
2023/12/01 11:59:11;;;;;;;13.40;6.07;;;-3275.40;96.60;;;;;;5011553;28;20076;-72
2023/12/01 12:01:37;;;;;;;12.40;5.47;;;-3275.30;96.30;;;;;;5012865;28;20479;-72
2023/12/01 12:04:04;;;;;;;12.70;6.18;;;-3275.20;96.30;;;;;;5010347;28;20030;-72
2023/12/01 12:06:32;;;;;;;13.10;5.55;;;-3275.30;96.20;;;;;;5011782;28;20105;-72
2023/12/01 12:08:59;;;;;;;14.05;5.28;;;-3275.30;96.30;;;;;;5008974;28;20064;-72
2023/12/01 12:11:24;;;;;;;11.68;5.43;;;-3275.10;96.10;;;;;;5009805;28;20371;-72
2023/12/01 12:13:54;;;;;;;9.55;4.53;;;-3275.20;96.30;;;;;;5011188;28;20034;-72
2023/12/01 12:16:23;;;;;;;12.67;5.27;;;-3275.30;96.50;;;;;;5010173;28;20080;-72
2023/12/01 12:18:49;;;;;;;11.30;4.70;;;-3275.40;96.50;;;;;;5011000;28;20357;-72